Weather at Grimsby Regional Airport

Public forecast

Using degrees Celsius for public forecast. Weather courtesy of forecast.io.

Closest aviation weather report (METAR) to Grimsby Regional Airport

Closest report is John C. Munro Hamilton International Airport, 14.7 nm (27.3 km) W.

2024/05/21 06:00 (retrieved 20 minutes ago)

CYHM 210600Z 23006G15KT 190V260 15SM FEW070 BKN110 19/15 A2988 RMK AC2AC3 SLP118 DENSITY ALT 1500FT

Closest aviation forecast (TAF) to Grimsby Regional Airport

Closest forecast is John C. Munro Hamilton International Airport, 14.7 nm (27.3 km) W.

2024/05/21 06:42 (retrieved 0 seconds ago)

TAF CYHM 210540Z 2106/2206 17007KT P6SM SCT070 BKN120 FM211200 21010KT P6SM BKN070 BECMG 2114/2116 22012G22KT FM211800 23015G25KT P6SM BKN060 PROB30 2118/2122 2 1/2SM TSRA BR BKN050CB FM212300 24010KT P6SM SCT060 BECMG 2202/2204 17008KT RMK NXT FCST BY 211200Z